Terminal Aerodrome Forecast
Issued by NWS Billings, MT

Home | Current Version | Previous Version | Text Only | Print | Product List | Glossary On
Versions: 1 2 3 4 5 6 7 8 9 10 11 12 13 14 15 16 17 18 19 20 21 22 23 24 25 26 27 28
011
FTUS45 KBYZ 081132
TAFMLS
TAF
KMLS 081132Z 0812/0912 28009KT P6SM SCT100 BKN200
     FM081800 28012KT P6SM SCT070 BKN120
     FM082100 30014G22KT P6SM SCT070 BKN150
     FM090200 27005KT P6SM SCT100 WS014/33032KT
     FM090900 31005KT P6SM SCT100=

USA.gov is the U.S. government's official web portal to all federal, state and local government web resources and services.